logo tempoitalia

Diretta Meteo Laughlin Auxiliary Airfield, Stati Uniti (USA)lunedì 31 agosto ore 00:55

Mappa
Sereno 31 °C Sereno 24 Ore: T.min 25 T.max 38
Ponente Est/Sud-Est Km/h 25.9 Punto di rugiada: 20 °C Umidità: 52% Visibilità: 10 Km
Il sole sorge alle: 07:19 Il sole tramonta alle: 20:04
31 Agosto 2026 00:55 tempo osservato: Sereno Sereno 31 52 1012 vento: Nord E/SE 25.9
30 Agosto 2026 23:55 tempo osservato: Sereno Sereno 32 43 1011 vento: Nord E/SE 25.9
30 Agosto 2026 22:55 tempo osservato: Sereno Sereno 32 40 1011 vento: Nord E 18.5
30 Agosto 2026 21:55 tempo osservato: Sereno Sereno 32 40 1011 vento: Nord E 16.7
30 Agosto 2026 20:55 tempo osservato: Sereno Sereno 33 36 1010 vento: Nord E 14.8
30 Agosto 2026 19:55 tempo osservato: Sereno Sereno 36 30 1009 vento: Nord E 18.5
30 Agosto 2026 18:55 tempo osservato: Sereno Sereno 37 27 1009 vento: Nord E 25.9
30 Agosto 2026 17:55 tempo osservato: Sereno Sereno 38 27 1009 vento: Nord E/SE 20.3
30 Agosto 2026 16:55 tempo osservato: Sereno Sereno 38 27 1009 vento: Nord E/SE 16.7
30 Agosto 2026 16:43 tempo osservato: Sereno Sereno 38 29 1010 vento: Nord SE 25.9
30 Agosto 2026 15:55 tempo osservato: Sereno Sereno 38 31 1010 vento: Nord E/SE 20.3
30 Agosto 2026 15:46 tempo osservato: Sereno Sereno 38 33 1011 vento: Nord SE 22.2
30 Agosto 2026 15:30 tempo osservato: Sereno Sereno 38 31 1011 vento: Nord SE 24
30 Agosto 2026 15:12 tempo osservato: Sereno Sereno 37 35 1011 vento: Nord S/SE 27.8
30 Agosto 2026 14:55 tempo osservato: Sereno Sereno 37 35 1012 vento: Nord S/SE 16.7
30 Agosto 2026 13:55 tempo osservato: Poco Nuvoloso Poco Nuvoloso 35 41 1013 vento: Nord E/SE 18.5
30 Agosto 2026 12:55 tempo osservato: Sereno Sereno 34 49 1014 vento: Nord E/SE 20.3
30 Agosto 2026 11:55 tempo osservato: Sereno Sereno 32 55 1015 vento: Nord E/SE 14.8
30 Agosto 2026 10:55 tempo osservato: Sereno Sereno 30 62 1015 vento: Nord E/SE 13
30 Agosto 2026 09:55 tempo osservato: Sereno Sereno 28 69 1015 vento: Nord E/SE 16.7
30 Agosto 2026 08:55 tempo osservato: Sereno Sereno 27 69 1015 vento: Nord E/SE 16.7
30 Agosto 2026 07:55 tempo osservato: Sereno Sereno 25 78 1015 vento: Nord E 11.1
30 Agosto 2026 06:55 tempo osservato: Sereno Sereno 26 73 1014 vento: Nord E/SE 11.1
30 Agosto 2026 05:55 tempo osservato: Sereno Sereno 26 73 1014 vento: Nord E 13
30 Agosto 2026 04:55 tempo osservato: Sereno Sereno 27 69 1014 vento: Nord E 13
30 Agosto 2026 03:55 tempo osservato: Sereno Sereno 28 65 1013 vento: Nord E 16.7
30 Agosto 2026 02:55 tempo osservato: Sereno Sereno 28 65 1013 vento: Nord E/SE 18.5
30 Agosto 2026 01:55 tempo osservato: Sereno Sereno 29 58 1014 vento: Nord E/SE 13